Time;durP1;ratioP1;P1;durP2;ratioP2;P2;SDS_P1;SDS_P2;PMS_P1;PMS_P2;Temp;Humidity;BMP_temperature;BMP_pressure;BME280_temperature;BME280_humidity;BME280_pressure;Samples;Min_cycle;Max_cycle;Signal;HPM_P1;HPM_P2
2023/04/11 00:02:11;;;;;;;15.38;3.90;;;9.60;99.90;;;;;;5096033;28;20071;-72
2023/04/11 00:04:39;;;;;;;9.75;1.65;;;9.60;99.90;;;;;;5094675;28;20057;-72
2023/04/11 00:07:08;;;;;;;15.50;3.15;;;9.50;99.90;;;;;;5095984;28;20357;-72
2023/04/11 00:09:34;;;;;;;3.33;1.10;;;9.40;99.90;;;;;;5096308;28;20024;-72
2023/04/11 00:12:00;;;;;;;22.45;2.85;;;9.50;99.90;;;;;;5094496;28;20537;-72
2023/04/11 00:14:27;;;;;;;28.80;2.55;;;9.50;99.90;;;;;;5095630;28;20023;-72
2023/04/11 00:16:54;;;;;;;23.35;2.65;;;9.50;99.90;;;;;;5095769;28;20073;-72
2023/04/11 00:19:24;;;;;;;23.13;4.25;;;9.40;99.90;;;;;;5094385;28;20070;-72
2023/04/11 00:21:50;;;;;;;13.75;2.63;;;9.40;99.90;;;;;;5095539;28;20066;-72
2023/04/11 00:24:17;;;;;;;14.30;1.80;;;9.40;99.90;;;;;;5094298;28;20031;-71
2023/04/11 00:26:42;;;;;;;2.10;0.63;;;9.40;99.90;;;;;;5094130;28;20116;-71
2023/04/11 00:29:08;;;;;;;40.85;4.60;;;9.40;99.90;;;;;;5095793;28;20047;-73
2023/04/11 00:31:34;;;;;;;15.13;4.22;;;9.40;99.90;;;;;;5095403;28;20032;-71
2023/04/11 00:34:00;;;;;;;5.45;2.53;;;9.40;99.90;;;;;;5095407;28;20020;-73
2023/04/11 00:36:25;;;;;;;11.15;1.83;;;9.40;99.90;;;;;;5077099;28;20043;-73
2023/04/11 00:38:53;;;;;;;6.20;1.73;;;9.40;99.90;;;;;;5093625;28;20036;-73
2023/04/11 00:41:20;;;;;;;4.70;0.95;;;9.40;99.90;;;;;;5094136;28;20040;-73
2023/04/11 00:43:46;;;;;;;22.30;4.32;;;9.40;99.90;;;;;;5094888;28;20095;-73
2023/04/11 00:46:13;;;;;;;20.48;5.28;;;9.40;99.90;;;;;;5095274;28;20059;-73
2023/04/11 00:48:40;;;;;;;0.77;0.60;;;9.30;99.90;;;;;;5093611;28;20032;-73
2023/04/11 00:51:06;;;;;;;3.15;1.15;;;9.30;99.90;;;;;;5093816;28;20039;-73
2023/04/11 00:53:33;;;;;;;21.83;4.45;;;9.30;99.90;;;;;;5094671;28;20020;-72
2023/04/11 00:55:59;;;;;;;11.10;2.05;;;9.30;99.90;;;;;;5093577;28;20027;-73
2023/04/11 00:58:26;;;;;;;16.58;4.05;;;9.20;99.90;;;;;;5088331;28;20545;-72
2023/04/11 01:00:52;;;;;;;14.10;1.30;;;9.30;99.90;;;;;;5089049;28;20690;-72
2023/04/11 01:03:18;;;;;;;26.92;4.53;;;9.20;99.90;;;;;;5093339;28;20032;-73
2023/04/11 01:05:45;;;;;;;23.15;3.75;;;9.10;99.90;;;;;;5093615;28;20024;-73
2023/04/11 01:08:12;;;;;;;17.42;4.13;;;9.10;99.90;;;;;;5094295;28;20085;-72
2023/04/11 01:10:40;;;;;;;9.93;2.78;;;9.10;99.90;;;;;;5093358;28;20066;-73
2023/04/11 01:13:06;;;;;;;10.90;1.00;;;9.00;99.90;;;;;;5092539;28;20028;-73
2023/04/11 01:15:31;;;;;;;10.73;1.85;;;9.10;99.90;;;;;;5094615;28;20020;-73
2023/04/11 01:18:00;;;;;;;4.07;1.38;;;9.10;99.90;;;;;;5093052;28;20024;-73
2023/04/11 01:20:28;;;;;;;6.90;2.38;;;9.10;99.90;;;;;;5094605;28;20016;-73
2023/04/11 01:22:57;;;;;;;7.60;1.55;;;9.10;99.90;;;;;;5092785;28;20032;-72
2023/04/11 01:25:24;;;;;;;1.75;1.48;;;9.00;99.90;;;;;;5094498;28;20028;-73
2023/04/11 01:27:51;;;;;;;16.50;2.58;;;9.00;99.90;;;;;;5093222;28;20024;-72
2023/04/11 01:30:16;;;;;;;26.17;4.18;;;9.00;99.90;;;;;;5094022;28;20052;-73
2023/04/11 01:32:42;;;;;;;6.43;2.90;;;9.00;99.90;;;;;;5094288;28;20408;-73
2023/04/11 01:35:10;;;;;;;33.45;6.00;;;9.00;99.90;;;;;;5094048;28;20076;-73
2023/04/11 01:37:36;;;;;;;19.70;3.80;;;9.00;99.90;;;;;;5093904;28;20020;-73
2023/04/11 01:40:02;;;;;;;19.17;3.80;;;8.90;99.90;;;;;;5094000;28;20400;-73
2023/04/11 01:42:28;;;;;;;1.10;0.95;;;9.00;99.90;;;;;;5092824;28;20484;-73
2023/04/11 01:44:55;;;;;;;2.50;1.20;;;9.00;99.90;;;;;;5093977;28;20015;-73
2023/04/11 01:47:21;;;;;;;1.77;1.63;;;9.00;99.90;;;;;;5092733;28;20479;-73
2023/04/11 01:49:49;;;;;;;1.67;1.05;;;8.90;99.90;;;;;;5091887;28;20034;-72
2023/04/11 01:52:15;;;;;;;3.97;1.63;;;8.90;99.90;;;;;;5085523;28;20494;-73
2023/04/11 01:54:41;;;;;;;21.65;3.05;;;8.90;99.90;;;;;;5093565;28;20027;-73
2023/04/11 01:57:06;;;;;;;21.08;3.35;;;8.80;99.90;;;;;;5093839;28;20073;-72
2023/04/11 01:59:32;;;;;;;6.78;1.20;;;8.80;99.90;;;;;;5092328;28;20016;-73
2023/04/11 02:01:59;;;;;;;9.45;3.22;;;8.80;99.90;;;;;;5092486;28;20040;-72
2023/04/11 02:04:25;;;;;;;2.38;2.17;;;8.80;99.90;;;;;;5092421;28;20547;-73
2023/04/11 02:06:51;;;;;;;19.92;1.60;;;8.70;99.90;;;;;;5091974;28;20089;-72
2023/04/11 02:09:18;;;;;;;6.57;1.13;;;8.70;99.90;;;;;;5092113;28;20353;-73
2023/04/11 02:11:45;;;;;;;5.68;1.20;;;8.70;99.90;;;;;;5093627;28;20076;-72
2023/04/11 02:14:13;;;;;;;0.65;0.65;;;8.60;99.90;;;;;;5092066;28;20488;-73
2023/04/11 02:17:09;;;;;;;12.25;1.73;;;8.60;99.90;;;;;;5092261;28;20047;-72
2023/04/11 02:19:37;;;;;;;23.92;2.20;;;8.50;99.90;;;;;;5083499;28;20043;-72
2023/04/11 02:22:02;;;;;;;6.70;1.30;;;8.50;99.90;;;;;;5093094;28;20131;-72
2023/04/11 02:24:28;;;;;;;17.05;3.20;;;8.50;99.90;;;;;;5092210;28;20099;-73
2023/04/11 02:26:55;;;;;;;25.08;3.72;;;8.50;99.90;;;;;;5092071;28;20031;-72
2023/04/11 02:29:22;;;;;;;8.57;1.75;;;8.50;99.90;;;;;;5092152;28;20067;-73
2023/04/11 02:31:48;;;;;;;18.83;3.53;;;8.50;99.90;;;;;;5092979;28;20023;-72
2023/04/11 02:34:16;;;;;;;12.25;1.77;;;8.50;99.90;;;;;;5093055;28;20024;-72
2023/04/11 02:36:42;;;;;;;19.17;1.02;;;8.60;99.90;;;;;;5092785;28;20027;-72
2023/04/11 02:39:08;;;;;;;11.07;3.40;;;8.50;99.90;;;;;;5093031;28;20440;-72
2023/04/11 02:41:38;;;;;;;9.20;2.30;;;8.50;99.90;;;;;;5092845;28;20113;-72
2023/04/11 02:44:04;;;;;;;4.70;1.52;;;8.50;99.90;;;;;;5093000;28;20122;-72
2023/04/11 02:46:29;;;;;;;7.28;0.95;;;8.50;99.90;;;;;;5091763;28;20110;-72
2023/04/11 02:48:55;;;;;;;32.78;2.85;;;8.50;99.90;;;;;;5063458;28;20020;-73
2023/04/11 02:51:22;;;;;;;16.35;2.53;;;8.50;99.90;;;;;;5091509;28;20024;-72
2023/04/11 02:53:48;;;;;;;1.90;0.60;;;8.40;99.90;;;;;;5091490;28;20040;-72
2023/04/11 02:56:20;;;;;;;8.85;2.05;;;8.50;99.90;;;;;;5091562;28;20038;-72
2023/04/11 02:58:51;;;;;;;23.38;3.63;;;8.40;99.90;;;;;;5091249;28;20553;-72
2023/04/11 03:01:23;;;;;;;13.20;2.03;;;8.40;99.90;;;;;;5091487;28;20031;-72
2023/04/11 03:03:49;;;;;;;26.27;4.82;;;8.40;99.90;;;;;;5091569;28;20069;-72
2023/04/11 03:06:15;;;;;;;1.85;0.93;;;8.40;99.90;;;;;;5091348;28;20012;-73
2023/04/11 03:08:42;;;;;;;6.97;2.28;;;8.40;99.90;;;;;;5091639;28;20362;-73
2023/04/11 03:11:08;;;;;;;19.70;3.72;;;8.40;99.90;;;;;;5091236;28;20058;-73
2023/04/11 03:13:38;;;;;;;5.82;1.83;;;8.30;99.90;;;;;;5091604;28;20035;-72
2023/04/11 03:16:05;;;;;;;2.95;1.15;;;8.40;99.90;;;;;;5092518;28;20035;-73
2023/04/11 03:18:31;;;;;;;17.13;3.70;;;8.40;99.90;;;;;;5091198;28;20020;-72
2023/04/11 03:21:00;;;;;;;15.02;2.72;;;8.30;99.90;;;;;;5091089;28;20434;-72
2023/04/11 03:23:26;;;;;;;15.63;3.65;;;8.30;99.90;;;;;;5091140;28;20028;-72
2023/04/11 03:25:53;;;;;;;11.88;2.72;;;8.30;99.90;;;;;;5091492;28;20024;-72
2023/04/11 03:28:18;;;;;;;7.32;2.33;;;8.30;99.90;;;;;;5074445;28;20464;-72
2023/04/11 03:30:45;;;;;;;6.80;1.58;;;8.20;99.90;;;;;;5091402;28;20058;-73
2023/04/11 03:33:15;;;;;;;11.80;2.30;;;8.20;99.90;;;;;;5090780;28;20016;-73
2023/04/11 03:35:41;;;;;;;6.18;1.30;;;8.20;99.90;;;;;;5077267;28;20499;-73
2023/04/11 03:38:07;;;;;;;14.70;3.65;;;8.20;99.90;;;;;;5094809;28;20024;-73
2023/04/11 03:40:32;;;;;;;9.80;2.83;;;8.20;99.90;;;;;;5095053;28;20024;-72
2023/04/11 03:43:07;;;;;;;2.70;1.30;;;8.20;99.90;;;;;;5094918;28;20036;-73
2023/04/11 03:45:34;;;;;;;18.98;4.38;;;8.20;99.90;;;;;;5095246;28;20020;-73
2023/04/11 03:48:03;;;;;;;12.93;3.22;;;8.10;99.90;;;;;;5078004;28;20024;-72
2023/04/11 03:50:43;;;;;;;8.00;2.35;;;8.10;99.90;;;;;;5095187;28;20097;-73
2023/04/11 03:53:10;;;;;;;7.20;2.83;;;8.00;99.90;;;;;;5094845;28;20031;-72
2023/04/11 03:55:38;;;;;;;14.02;2.58;;;8.00;99.90;;;;;;5095054;28;20042;-73
2023/04/11 03:58:05;;;;;;;3.95;1.83;;;8.00;99.90;;;;;;5094576;28;20504;-73
2023/04/11 04:00:31;;;;;;;21.50;4.07;;;8.00;99.90;;;;;;5094835;28;20028;-73
2023/04/11 04:03:03;;;;;;;;;;;8.00;99.90;;;;;;5094649;28;20036;-73
2023/04/11 04:05:29;;;;;;;9.13;4.15;;;8.00;99.90;;;;;;5094547;28;20007;-73
2023/04/11 04:07:55;;;;;;;1.55;0.95;;;8.10;99.90;;;;;;5094531;28;20078;-72
2023/04/11 04:10:26;;;;;;;24.58;5.35;;;8.00;99.90;;;;;;5094504;28;20138;-72
2023/04/11 04:12:53;;;;;;;1.70;1.30;;;7.90;99.90;;;;;;5094648;28;20043;-72
2023/04/11 04:15:22;;;;;;;6.90;1.95;;;7.80;99.90;;;;;;5092200;28;20093;-73
2023/04/11 04:17:50;;;;;;;17.27;3.97;;;7.90;99.90;;;;;;5094027;28;20016;-73
2023/04/11 04:20:26;;;;;;;21.42;5.53;;;7.90;99.90;;;;;;5094556;28;20443;-73
2023/04/11 04:22:56;;;;;;;0.98;0.82;;;7.80;99.90;;;;;;5094086;28;20035;-73
2023/04/11 04:25:32;;;;;;;8.15;2.78;;;7.90;99.90;;;;;;5094427;28;20608;-73
2023/04/11 04:27:59;;;;;;;3.97;1.90;;;7.80;99.90;;;;;;5094208;28;20031;-72
2023/04/11 04:30:28;;;;;;;16.55;2.78;;;7.90;99.90;;;;;;5094239;28;20024;-72
2023/04/11 04:33:03;;;;;;;0.10;0.10;;;7.80;99.90;;;;;;5093800;28;20031;-72
2023/04/11 04:35:31;;;;;;;4.20;1.73;;;7.90;99.90;;;;;;5083614;28;20024;-72
2023/04/11 04:38:04;;;;;;;4.20;1.65;;;7.90;99.90;;;;;;5076267;28;20062;-72
2023/04/11 04:40:48;;;;;;;13.95;3.65;;;7.80;99.90;;;;;;5094182;28;20050;-73
2023/04/11 04:43:23;;;;;;;8.13;1.10;;;7.80;99.90;;;;;;5093780;28;20024;-72
2023/04/11 04:45:59;;;;;;;1.90;0.35;;;7.70;99.90;;;;;;5093036;28;20381;-73
2023/04/11 04:48:32;;;;;;;0.17;0.17;;;7.60;99.90;;;;;;5093599;28;20035;-73
2023/04/11 04:50:58;;;;;;;2.97;1.90;;;7.70;99.90;;;;;;5095250;28;20036;-73
2023/04/11 04:53:23;;;;;;;2.97;1.80;;;7.60;99.90;;;;;;5091284;28;20024;-72
2023/04/11 04:55:54;;;;;;;8.77;1.88;;;7.60;99.90;;;;;;5085138;28;20365;-73
2023/04/11 04:58:21;;;;;;;0.10;0.10;;;7.60;99.90;;;;;;5092849;28;20408;-73
2023/04/11 05:00:54;;;;;;;0.85;0.50;;;7.50;99.90;;;;;;5092886;28;20486;-73
2023/04/11 05:03:22;;;;;;;0.10;0.10;;;7.50;99.90;;;;;;5093879;28;20391;-73
2023/04/11 05:05:50;;;;;;;4.78;1.10;;;7.40;99.90;;;;;;5076953;28;20103;-73
2023/04/11 05:08:17;;;;;;;12.75;0.90;;;7.50;99.90;;;;;;5093386;28;20123;-73
2023/04/11 05:10:43;;;;;;;1.08;0.55;;;7.50;99.90;;;;;;5093285;28;20432;-73
2023/04/11 05:13:11;;;;;;;0.73;0.40;;;7.60;99.90;;;;;;5093314;28;20391;-72
2023/04/11 05:15:36;;;;;;;12.18;1.40;;;7.50;99.90;;;;;;5092995;28;20030;-72
2023/04/11 05:18:02;;;;;;;7.68;0.68;;;7.50;99.90;;;;;;5093457;28;20028;-72
2023/04/11 05:20:29;;;;;;;1.08;0.98;;;7.50;99.90;;;;;;5093283;28;20028;-73
2023/04/11 05:22:56;;;;;;;5.82;1.35;;;7.50;99.90;;;;;;5093019;28;20400;-72
2023/04/11 05:25:22;;;;;;;8.75;2.38;;;7.50;99.90;;;;;;5093013;28;20024;-72
2023/04/11 05:27:49;;;;;;;5.28;2.05;;;7.60;99.90;;;;;;5093151;28;20107;-71
2023/04/11 05:30:19;;;;;;;2.72;1.00;;;7.50;99.90;;;;;;5092403;28;20024;-72
2023/04/11 05:32:46;;;;;;;7.25;2.58;;;7.50;99.90;;;;;;5092033;28;20020;-72
2023/04/11 05:35:12;;;;;;;0.10;0.10;;;7.60;99.90;;;;;;5092748;28;20520;-72
2023/04/11 05:37:43;;;;;;;5.28;1.02;;;7.60;99.90;;;;;;5092875;28;20376;-72
2023/04/11 05:40:09;;;;;;;4.95;1.80;;;7.60;99.90;;;;;;5092590;28;20062;-72
2023/04/11 05:42:35;;;;;;;19.77;2.75;;;7.60;99.90;;;;;;5092882;28;20138;-72
2023/04/11 05:45:01;;;;;;;0.38;0.35;;;7.70;99.90;;;;;;5093693;28;20107;-72
2023/04/11 05:47:27;;;;;;;7.38;2.55;;;7.70;99.90;;;;;;5092865;28;20225;-73
2023/04/11 05:49:52;;;;;;;5.53;1.08;;;7.70;99.90;;;;;;5093681;28;20036;-73
2023/04/11 05:52:18;;;;;;;2.83;1.45;;;7.80;99.90;;;;;;5092769;28;20103;-72
2023/04/11 05:54:44;;;;;;;2.35;0.98;;;7.80;99.90;;;;;;5086577;28;20028;-73
2023/04/11 05:57:10;;;;;;;1.67;0.47;;;7.80;99.90;;;;;;5068533;28;20025;-73
2023/04/11 05:59:35;;;;;;;6.53;2.13;;;7.90;99.90;;;;;;5083434;28;20054;-72
2023/04/11 06:02:01;;;;;;;0.30;0.30;;;7.90;99.90;;;;;;5092808;28;20024;-71
2023/04/11 06:04:27;;;;;;;10.68;1.08;;;8.00;99.90;;;;;;5087469;28;20478;-73
2023/04/11 06:06:54;;;;;;;2.72;1.27;;;8.00;99.90;;;;;;5092957;28;20115;-73
2023/04/11 06:09:20;;;;;;;13.57;2.47;;;8.00;99.90;;;;;;5093180;28;20478;-72
2023/04/11 06:11:45;;;;;;;4.28;0.47;;;7.90;99.90;;;;;;5092695;28;20036;-72
2023/04/11 06:14:11;;;;;;;11.55;2.60;;;8.10;99.90;;;;;;5092471;28;20016;-73
2023/04/11 06:16:37;;;;;;;13.00;2.15;;;8.00;99.90;;;;;;5077795;28;20472;-72
2023/04/11 06:19:04;;;;;;;17.58;2.15;;;8.00;99.90;;;;;;5079806;28;20103;-72
2023/04/11 06:21:31;;;;;;;0.20;0.20;;;8.00;99.90;;;;;;5086752;28;20548;-72
2023/04/11 06:24:06;;;;;;;3.63;1.55;;;8.20;99.90;;;;;;5091405;28;20112;-72
2023/04/11 06:26:32;;;;;;;1.55;0.70;;;8.20;99.90;;;;;;5076318;28;20090;-72
2023/04/11 06:28:58;;;;;;;0.52;0.52;;;8.30;99.90;;;;;;5090168;28;20472;-73
2023/04/11 06:31:24;;;;;;;17.73;2.70;;;8.40;99.90;;;;;;5092132;28;20027;-73
2023/04/11 06:33:50;;;;;;;9.88;2.25;;;8.40;99.90;;;;;;5086824;28;20035;-72
2023/04/11 06:36:15;;;;;;;10.68;2.10;;;8.40;99.90;;;;;;5092321;28;20019;-72
2023/04/11 06:38:42;;;;;;;10.00;3.85;;;8.40;99.90;;;;;;5092195;28;20040;-73
2023/04/11 06:41:07;;;;;;;1.65;0.95;;;8.40;99.90;;;;;;5074857;28;20029;-72
2023/04/11 06:43:33;;;;;;;0.30;0.30;;;8.50;99.90;;;;;;5077848;28;20411;-72
2023/04/11 06:45:59;;;;;;;0.20;0.20;;;8.70;99.90;;;;;;5078314;28;20033;-73
2023/04/11 06:48:26;;;;;;;11.27;2.55;;;8.80;99.90;;;;;;5068218;28;20032;-73
2023/04/11 06:50:52;;;;;;;0.10;0.10;;;8.70;99.90;;;;;;5078531;28;20031;-73
2023/04/11 06:53:17;;;;;;;1.45;0.80;;;8.70;99.90;;;;;;5071152;28;20029;-73
2023/04/11 06:55:47;;;;;;;9.18;3.40;;;8.70;99.90;;;;;;5070932;28;20063;-72
2023/04/11 06:58:13;;;;;;;0.20;0.20;;;8.80;99.90;;;;;;5069858;28;20105;-72
2023/04/11 07:00:39;;;;;;;10.82;2.20;;;8.90;99.90;;;;;;5088355;28;20028;-72
2023/04/11 07:03:07;;;;;;;0.85;0.45;;;8.90;99.90;;;;;;5092138;28;20047;-72
2023/04/11 07:05:36;;;;;;;18.40;3.35;;;8.90;99.90;;;;;;5090953;28;20024;-72
2023/04/11 07:08:01;;;;;;;4.78;1.85;;;9.00;99.90;;;;;;5091898;28;20027;-73
2023/04/11 07:10:27;;;;;;;0.10;0.10;;;9.10;99.90;;;;;;5094979;28;20499;-72
2023/04/11 07:12:53;;;;;;;12.40;2.33;;;9.20;99.90;;;;;;5098842;28;20085;-72
2023/04/11 07:15:19;;;;;;;5.38;2.85;;;9.20;99.90;;;;;;5097541;28;20047;-72
2023/04/11 07:17:47;;;;;;;2.42;1.55;;;9.40;99.90;;;;;;5096927;28;20369;-71
2023/04/11 07:20:12;;;;;;;17.10;5.18;;;9.40;99.90;;;;;;5098354;28;20042;-72
2023/04/11 07:22:41;;;;;;;0.75;0.75;;;9.40;99.90;;;;;;5098980;28;20036;-71
2023/04/11 07:25:07;;;;;;;9.48;3.13;;;9.40;99.90;;;;;;5092340;28;20050;-71
2023/04/11 07:27:34;;;;;;;7.88;2.47;;;9.40;99.90;;;;;;5079619;28;20388;-71
2023/04/11 07:30:00;;;;;;;15.10;4.30;;;9.50;99.90;;;;;;5078956;28;20104;-71
2023/04/11 07:32:25;;;;;;;21.77;6.57;;;9.60;99.90;;;;;;5078692;28;20108;-70
2023/04/11 07:34:51;;;;;;;11.18;4.05;;;9.70;99.90;;;;;;5078397;28;20078;-69
2023/04/11 07:37:17;;;;;;;26.58;7.35;;;9.70;99.90;;;;;;5078510;28;20028;-71
2023/04/11 07:39:43;;;;;;;29.33;5.07;;;9.90;99.90;;;;;;5078336;28;20033;-70
2023/04/11 07:42:09;;;;;;;25.80;7.70;;;9.80;99.90;;;;;;5078765;28;20040;-71
2023/04/11 07:44:35;;;;;;;13.63;6.13;;;9.90;99.90;;;;;;5077350;28;20028;-70
2023/04/11 07:47:01;;;;;;;26.02;7.72;;;9.90;99.90;;;;;;5077320;28;20032;-70
2023/04/11 07:49:27;;;;;;;15.88;6.10;;;9.90;99.90;;;;;;5077331;28;20021;-70
2023/04/11 07:51:52;;;;;;;11.82;5.40;;;10.00;99.90;;;;;;5078766;28;20133;-70
2023/04/11 07:54:18;;;;;;;7.60;2.92;;;10.00;99.90;;;;;;5078270;28;20078;-70
2023/04/11 07:56:44;;;;;;;20.10;6.28;;;9.90;99.90;;;;;;5078816;28;20020;-70
2023/04/11 07:59:12;;;;;;;11.35;3.47;;;9.80;99.90;;;;;;5083781;28;20426;-70
2023/04/11 08:01:38;;;;;;;22.30;3.67;;;10.00;99.90;;;;;;5098949;28;20107;-71
2023/04/11 08:04:04;;;;;;;13.48;3.40;;;10.20;99.90;;;;;;5097368;28;20119;-69
2023/04/11 08:06:30;;;;;;;4.50;1.60;;;10.20;99.90;;;;;;5098793;28;20044;-70
2023/04/11 08:08:57;;;;;;;4.70;1.17;;;10.20;99.90;;;;;;5098861;28;20024;-70
2023/04/11 08:11:23;;;;;;;2.90;0.70;;;10.30;99.90;;;;;;5099069;28;20041;-70
2023/04/11 08:13:49;;;;;;;7.60;0.77;;;10.40;99.90;;;;;;5098989;28;20136;-69
2023/04/11 08:16:15;;;;;;;5.38;1.33;;;10.40;99.90;;;;;;5098833;28;20024;-70
2023/04/11 08:18:41;;;;;;;10.00;1.23;;;10.40;99.90;;;;;;5098502;28;20076;-70
2023/04/11 08:21:09;;;;;;;5.75;1.58;;;10.60;99.90;;;;;;5097270;28;20024;-70
2023/04/11 08:23:36;;;;;;;2.78;1.08;;;10.80;99.90;;;;;;5095408;28;20031;-70
2023/04/11 08:26:01;;;;;;;1.23;0.50;;;11.00;99.90;;;;;;5095728;28;20490;-70
2023/04/11 08:28:27;;;;;;;5.80;0.22;;;10.90;99.90;;;;;;5095494;28;20057;-70
2023/04/11 08:30:57;;;;;;;8.77;1.85;;;11.00;99.90;;;;;;5094356;28;20028;-70
2023/04/11 08:33:24;;;;;;;11.27;2.25;;;11.10;99.90;;;;;;5081497;28;20111;-70
2023/04/11 08:35:50;;;;;;;7.53;2.38;;;10.80;99.90;;;;;;5095748;28;20026;-70
2023/04/11 08:38:16;;;;;;;12.45;1.42;;;10.80;99.90;;;;;;5094693;28;20032;-70
2023/04/11 08:40:42;;;;;;;5.68;1.48;;;10.90;99.90;;;;;;5095341;28;20490;-71
2023/04/11 08:43:10;;;;;;;6.88;1.10;;;11.10;99.90;;;;;;5095012;28;20145;-70
2023/04/11 08:45:39;;;;;;;14.30;2.13;;;11.10;99.90;;;;;;5094018;28;20032;-70
2023/04/11 08:48:06;;;;;;;4.82;0.65;;;11.20;99.90;;;;;;5094718;28;20107;-70
2023/04/11 08:50:33;;;;;;;4.68;0.68;;;11.20;99.90;;;;;;5095314;28;20032;-70
2023/04/11 08:53:02;;;;;;;5.05;1.33;;;11.50;99.90;;;;;;5094907;28;20050;-70
2023/04/11 08:55:28;;;;;;;4.13;1.30;;;11.30;99.90;;;;;;5094916;28;20533;-70
2023/04/11 08:57:58;;;;;;;4.55;1.73;;;11.20;99.90;;;;;;5093986;28;20027;-70
2023/04/11 09:00:25;;;;;;;4.90;1.27;;;11.50;99.90;;;;;;5094436;28;20032;-70
2023/04/11 09:03:05;;;;;;;6.65;1.13;;;11.70;99.90;;;;;;5094845;28;20036;-70
2023/04/11 09:05:35;;;;;;;0.63;0.63;;;12.00;99.90;;;;;;5094665;28;20024;-70
2023/04/11 09:08:05;;;;;;;2.97;0.93;;;11.90;99.90;;;;;;5094397;28;20036;-70
2023/04/11 09:10:31;;;;;;;5.07;0.95;;;11.80;99.90;;;;;;5092699;28;20099;-70
2023/04/11 09:12:57;;;;;;;3.80;0.50;;;11.60;99.90;;;;;;5080174;28;20564;-70
2023/04/11 09:15:26;;;;;;;4.38;0.40;;;11.80;99.90;;;;;;5094734;28;20385;-70
2023/04/11 09:17:53;;;;;;;5.47;1.55;;;11.70;99.90;;;;;;5094258;28;20047;-70
2023/04/11 09:20:20;;;;;;;3.03;0.75;;;11.50;99.90;;;;;;5094463;28;20039;-70
2023/04/11 09:22:49;;;;;;;1.58;0.85;;;11.90;99.90;;;;;;5094143;28;20028;-70
2023/04/11 09:25:19;;;;;;;4.28;1.38;;;12.30;99.90;;;;;;5094298;28;20038;-70
2023/04/11 09:27:46;;;;;;;0.80;0.80;;;12.20;99.90;;;;;;5094312;28;20028;-70
2023/04/11 09:30:21;;;;;;;10.15;1.60;;;12.00;99.90;;;;;;5093164;28;20556;-70
2023/04/11 09:32:48;;;;;;;3.65;1.10;;;12.20;99.90;;;;;;5093665;28;20046;-70
2023/04/11 09:35:19;;;;;;;0.17;0.17;;;12.30;99.90;;;;;;5094272;28;20506;-70
2023/04/11 09:37:50;;;;;;;0.10;0.10;;;12.40;99.90;;;;;;5093695;28;20108;-70
2023/04/11 09:40:20;;;;;;;23.90;1.13;;;12.80;99.90;;;;;;5092952;28;20293;-70
2023/04/11 09:42:47;;;;;;;0.75;0.43;;;12.50;99.80;;;;;;5094138;28;20492;-70
2023/04/11 09:45:23;;;;;;;1.30;0.55;;;12.50;99.90;;;;;;5094051;28;20024;-70
2023/04/11 09:47:51;;;;;;;0.13;0.13;;;12.60;99.90;;;;;;5094055;28;20028;-70
2023/04/11 09:50:18;;;;;;;5.47;0.55;;;12.70;99.90;;;;;;5093648;28;20024;-71
2023/04/11 09:52:45;;;;;;;2.85;1.02;;;12.50;99.40;;;;;;5093963;28;20058;-70
2023/04/11 09:55:17;;;;;;;8.88;1.10;;;12.90;99.60;;;;;;5093769;28;20028;-70
2023/04/11 09:57:50;;;;;;;0.10;0.10;;;12.70;97.80;;;;;;5092531;28;20036;-70
2023/04/11 10:00:23;;;;;;;6.10;1.60;;;13.20;97.70;;;;;;5093495;28;20031;-70
2023/04/11 10:02:54;;;;;;;0.40;0.32;;;13.50;97.30;;;;;;5093726;28;20035;-70
2023/04/11 10:05:24;;;;;;;1.75;0.85;;;13.20;96.50;;;;;;5079564;28;20469;-70
2023/04/11 10:08:11;;;;;;;7.28;1.33;;;12.90;96.60;;;;;;5066865;28;20036;-70
2023/04/11 10:10:37;;;;;;;4.57;0.80;;;13.00;96.00;;;;;;5092092;28;20085;-71
2023/04/11 10:13:34;;;;;;;2.20;1.23;;;13.10;95.50;;;;;;5093489;28;20024;-70
2023/04/11 10:16:10;;;;;;;2.13;0.82;;;13.30;95.60;;;;;;5092871;28;20031;-71
2023/04/11 10:18:36;;;;;;;1.45;0.57;;;13.10;95.50;;;;;;5093433;28;20036;-73
2023/04/11 10:21:04;;;;;;;2.10;0.60;;;13.30;95.00;;;;;;5091559;28;20095;-73
2023/04/11 10:24:11;;;;;;;8.57;1.63;;;13.40;96.40;;;;;;5093302;28;20507;-73
2023/04/11 10:26:49;;;;;;;10.23;2.10;;;13.50;95.60;;;;;;5067547;28;20085;-72
2023/04/11 10:29:47;;;;;;;4.38;0.55;;;13.60;95.70;;;;;;5065825;28;20450;-72
2023/04/11 10:32:17;;;;;;;0.75;0.55;;;13.90;95.80;;;;;;5068075;28;20036;-72
2023/04/11 10:34:49;;;;;;;0.50;0.50;;;14.10;96.10;;;;;;5073321;28;20036;-73
2023/04/11 10:37:16;;;;;;;4.88;1.90;;;14.60;96.40;;;;;;5077432;28;20024;-73
2023/04/11 10:39:54;;;;;;;15.27;1.35;;;14.20;96.90;;;;;;5082543;28;20457;-72
2023/04/11 10:42:30;;;;;;;3.50;0.55;;;13.80;95.30;;;;;;5072589;28;20044;-72
2023/04/11 10:45:22;;;;;;;0.55;0.47;;;13.80;94.90;;;;;;5069332;28;20515;-72
2023/04/11 10:48:06;;;;;;;1.50;0.65;;;13.90;95.20;;;;;;5071894;28;20107;-72
2023/04/11 10:50:38;;;;;;;2.47;0.98;;;13.70;94.90;;;;;;5080298;28;20029;-72
2023/04/11 10:53:06;;;;;;;1.85;1.23;;;13.80;94.80;;;;;;5079678;28;20093;-73
2023/04/11 10:55:48;;;;;;;16.15;1.02;;;13.90;95.20;;;;;;5073775;28;20043;-74
2023/04/11 10:58:20;;;;;;;4.18;0.57;;;14.30;94.40;;;;;;5073916;28;20040;-72
2023/04/11 11:00:47;;;;;;;11.85;1.63;;;14.20;94.10;;;;;;5091080;28;20491;-74
2023/04/11 11:03:21;;;;;;;1.77;0.70;;;13.90;93.80;;;;;;5089985;28;20040;-72
2023/04/11 11:05:58;;;;;;;6.75;1.05;;;13.50;94.60;;;;;;5091756;28;20052;-72
2023/04/11 11:08:29;;;;;;;2.30;1.38;;;13.60;94.20;;;;;;5091836;28;20492;-73
2023/04/11 11:11:08;;;;;;;1.00;0.80;;;14.30;93.90;;;;;;5087664;28;20430;-72
2023/04/11 11:13:39;;;;;;;6.43;0.55;;;13.50;94.20;;;;;;5090597;28;20040;-72
2023/04/11 11:16:07;;;;;;;6.75;1.38;;;13.20;95.70;;;;;;5090613;28;20059;-73
2023/04/11 11:18:33;;;;;;;2.78;0.73;;;13.60;95.80;;;;;;5086323;28;20082;-72
2023/04/11 11:20:59;;;;;;;8.43;1.92;;;13.90;95.20;;;;;;5065618;28;20090;-72
2023/04/11 11:23:25;;;;;;;4.95;1.02;;;14.10;96.00;;;;;;5079703;28;20028;-72
2023/04/11 11:25:56;;;;;;;3.22;1.25;;;14.00;95.50;;;;;;5084239;28;20016;-72
2023/04/11 11:28:22;;;;;;;5.63;1.08;;;14.00;95.60;;;;;;5068319;28;20354;-72
2023/04/11 11:30:50;;;;;;;4.28;1.20;;;13.70;95.40;;;;;;5073703;28;20419;-73
2023/04/11 11:33:18;;;;;;;7.57;1.45;;;13.80;92.70;;;;;;5071987;28;20033;-73
2023/04/11 11:36:04;;;;;;;5.32;1.52;;;13.70;93.50;;;;;;5079879;28;20059;-72
2023/04/11 11:38:30;;;;;;;2.88;1.20;;;14.20;95.70;;;;;;5079006;28;20040;-72
2023/04/11 11:40:57;;;;;;;10.93;1.17;;;13.90;96.30;;;;;;5077585;28;20384;-72
2023/04/11 11:43:26;;;;;;;20.73;3.75;;;13.60;97.10;;;;;;5073671;28;20539;-72
2023/04/11 11:46:10;;;;;;;13.43;1.90;;;13.40;97.50;;;;;;5071164;28;20104;-72
2023/04/11 11:48:36;;;;;;;7.13;1.25;;;12.60;98.80;;;;;;5081551;28;20079;-73
2023/04/11 11:51:02;;;;;;;2.95;0.73;;;12.60;97.60;;;;;;5079976;28;20047;-72
2023/04/11 11:53:28;;;;;;;0.55;0.30;;;12.90;97.40;;;;;;5072713;28;20074;-72
2023/04/11 11:55:55;;;;;;;0.13;0.13;;;13.20;97.40;;;;;;5073076;28;20123;-72
2023/04/11 11:58:21;;;;;;;3.30;1.15;;;12.90;96.90;;;;;;5078814;28;20017;-72
2023/04/11 12:00:49;;;;;;;2.90;0.50;;;12.60;97.50;;;;;;5094438;28;20020;-73
2023/04/11 12:03:33;;;;;;;0.10;0.10;;;12.60;97.80;;;;;;5095204;28;20041;-74
2023/04/11 12:05:59;;;;;;;2.67;2.35;;;13.50;97.60;;;;;;5095026;28;20032;-72
2023/04/11 12:08:25;;;;;;;2.33;1.63;;;14.40;95.60;;;;;;5094773;28;20016;-73
2023/04/11 12:10:51;;;;;;;3.17;0.75;;;14.30;94.70;;;;;;5095359;28;20388;-72
2023/04/11 12:13:22;;;;;;;5.20;0.95;;;14.50;94.20;;;;;;5094833;28;20168;-73
2023/04/11 12:15:50;;;;;;;1.80;0.98;;;14.90;94.40;;;;;;5093471;28;20532;-73
2023/04/11 12:18:19;;;;;;;3.83;1.15;;;15.10;94.70;;;;;;5094889;28;20468;-73
2023/04/11 12:20:45;;;;;;;1.55;0.70;;;15.70;94.30;;;;;;5094901;28;20073;-73
2023/04/11 12:23:11;;;;;;;0.80;0.28;;;15.30;93.20;;;;;;5093535;28;20039;-73
2023/04/11 12:25:36;;;;;;;5.10;0.40;;;16.00;93.50;;;;;;5093786;28;20028;-73
2023/04/11 12:28:02;;;;;;;1.02;0.82;;;16.20;93.10;;;;;;5090271;28;20498;-73
2023/04/11 12:30:28;;;;;;;1.08;0.45;;;15.80;92.60;;;;;;5093007;28;20032;-72
2023/04/11 12:32:54;;;;;;;2.40;0.50;;;15.40;93.80;;;;;;5094741;28;20023;-73
2023/04/11 12:35:20;;;;;;;0.98;0.63;;;15.50;93.70;;;;;;5094788;28;20031;-73
2023/04/11 12:37:45;;;;;;;8.93;1.15;;;14.60;94.40;;;;;;5094032;28;20068;-73
2023/04/11 12:40:12;;;;;;;12.15;1.38;;;14.70;94.90;;;;;;5093536;28;20062;-73
2023/04/11 12:42:42;;;;;;;5.68;0.98;;;15.20;95.20;;;;;;5093919;28;20032;-73
2023/04/11 12:45:10;;;;;;;4.28;0.45;;;15.10;94.40;;;;;;5094924;28;20056;-73
2023/04/11 12:47:36;;;;;;;10.52;2.38;;;15.00;95.10;;;;;;5093331;28;20024;-73
2023/04/11 12:50:02;;;;;;;3.30;0.98;;;14.90;95.50;;;;;;5094059;28;20073;-73
2023/04/11 12:52:29;;;;;;;0.32;0.32;;;15.00;94.20;;;;;;5095356;28;20048;-73
2023/04/11 12:54:55;;;;;;;0.00;0.00;;;15.90;94.70;;;;;;5094957;28;20032;-73
2023/04/11 12:57:21;;;;;;;0.00;0.00;;;15.80;93.50;;;;;;5095123;28;20020;-73